Time;durP1;ratioP1;P1;durP2;ratioP2;P2;SDS_P1;SDS_P2;PMS_P1;PMS_P2;Temp;Humidity;BMP_temperature;BMP_pressure;BME280_temperature;BME280_humidity;BME280_pressure;Samples;Min_cycle;Max_cycle;Signal;HPM_P1;HPM_P2
2023/02/23 00:01:16;;;;;;;;;;;;;;;6.54;100.00;96335.50;5001824;28;20012;-73
2023/02/23 00:03:42;;;;;;;;;;;;;;;6.45;100.00;96339.16;5004220;28;19925;-69
2023/02/23 00:06:08;;;;;;;;;;;;;;;6.45;100.00;96333.72;5018678;28;19928;-69
2023/02/23 00:08:35;;;;;;;;;;;;;;;6.47;100.00;96330.66;5024563;28;19925;-70
2023/02/23 00:11:04;;;;;;;;;;;;;;;6.50;100.00;96340.84;5024286;28;19917;-69
2023/02/23 00:13:30;;;;;;;;;;;;;;;6.60;100.00;96336.81;5024022;28;20346;-70
2023/02/23 00:15:55;;;;;;;;;;;;;;;6.71;100.00;96340.59;5025031;28;19921;-70
2023/02/23 00:18:21;;;;;;;;;;;;;;;6.82;100.00;96335.41;5019723;28;20401;-71
2023/02/23 00:20:56;;;;;;;;;;;;;;;6.94;100.00;96338.06;5006080;28;19964;-69
2023/02/23 00:23:22;;;;;;;;;;;;;;;7.05;100.00;96339.09;4998887;28;19925;-68
2023/02/23 00:25:47;;;;;;;;;;;;;;;7.13;100.00;96333.81;5002819;28;19922;-70
2023/02/23 00:28:13;;;;;;;;;;;;;;;7.22;100.00;96340.69;4998765;28;19922;-67
2023/02/23 00:30:38;;;;;;;;;;;;;;;7.19;100.00;96335.16;5004989;28;19917;-69
2023/02/23 00:33:03;;;;;;;;;;;;;;;7.08;100.00;96332.19;5001227;28;19922;-71
2023/02/23 00:35:29;;;;;;;;;;;;;;;6.91;100.00;96338.75;5002507;28;19991;-69
2023/02/23 00:37:54;;;;;;;;;;;;;;;6.44;100.00;96334.84;5004100;28;20012;-70
2023/02/23 00:40:21;;;;;;;;;;;;;;;6.37;100.00;96337.38;4997777;28;19921;-68
2023/02/23 00:42:48;;;;;;;;;;;;;;;6.38;100.00;96338.97;5004161;28;19917;-68
2023/02/23 00:45:14;;;;;;;;;;;;;;;6.39;100.00;96342.47;4997783;28;19945;-70
2023/02/23 00:47:43;;;;;;;;;;;;;;;6.38;100.00;96338.19;5004884;28;19963;-69
2023/02/23 00:50:15;;;;;;;;;;;;;;;6.42;100.00;96337.13;5009725;28;19957;-70
2023/02/23 00:52:41;;;;;;;;;;;;;;;6.54;100.00;96338.22;5023322;28;19931;-70
2023/02/23 00:55:07;;;;;;;;;;;;;;;6.55;100.00;96337.06;5018446;28;19929;-69
2023/02/23 00:57:33;;;;;;;;;;;;;;;6.54;100.00;96335.50;5023088;28;19921;-69
2023/02/23 00:59:58;;;;;;;;;;;;;;;6.56;100.00;96334.00;5023628;28;19917;-70
2023/02/23 01:02:23;;;;;;;;;;;;;;;6.55;100.00;96332.41;5019372;28;20821;-69
2023/02/23 01:04:49;;;;;;;;;;;;;;;6.47;100.00;96327.94;5012779;28;19967;-69
2023/02/23 01:07:14;;;;;;;;;;;;;;;6.34;100.00;96329.94;4999439;28;19921;-69
2023/02/23 01:09:39;;;;;;;;;;;;;;;6.22;100.00;96330.78;5004212;28;19918;-70
2023/02/23 01:12:06;;;;;;;;;;;;;;;6.15;100.00;96329.78;4999767;28;19918;-70
2023/02/23 01:14:31;;;;;;;;;;;;;;;6.10;100.00;96330.81;5013269;28;19917;-70
2023/02/23 01:16:57;;;;;;;;;;;;;;;6.03;100.00;96330.63;5015152;28;19975;-71
2023/02/23 01:19:22;;;;;;;;;;;;;;;6.04;100.00;96329.50;5000561;28;19933;-70
2023/02/23 01:21:48;;;;;;;;;;;;;;;6.15;100.00;96329.78;5005175;28;19917;-71
2023/02/23 01:24:13;;;;;;;;;;;;;;;6.26;100.00;96328.94;5009686;28;19948;-71
2023/02/23 01:26:40;;;;;;;;;;;;;;;6.31;100.00;96322.47;5014128;28;19921;-71
2023/02/23 01:29:09;;;;;;;;;;;;;;;6.31;100.00;96322.47;4999748;28;19918;-70
2023/02/23 01:31:35;;;;;;;;;;;;;;;6.36;100.00;96319.50;5005048;28;19921;-69
2023/02/23 01:34:01;;;;;;;;;;;;;;;6.42;100.00;96326.25;5003087;28;20012;-69
2023/02/23 01:36:28;;;;;;;;;;;;;;;6.50;100.00;96322.59;4999345;28;19921;-69
2023/02/23 01:38:55;;;;;;;;;;;;;;;6.56;100.00;96312.22;5003300;28;20349;-70
2023/02/23 01:41:20;;;;;;;;;;;;;;;6.61;100.00;96319.34;4997234;28;19951;-69
2023/02/23 01:44:02;;;;;;;;;;;;;;;6.63;100.00;96317.06;5003075;28;19917;-69
2023/02/23 01:46:29;;;;;;;;;;;;;;;6.72;100.00;96314.16;4998307;28;19921;-71
2023/02/23 01:48:55;;;;;;;;;;;;;;;6.74;100.00;96318.13;4999996;28;19918;-71
2023/02/23 01:51:22;;;;;;;;;;;;;;;6.78;100.00;96310.84;4999206;28;19928;-70
2023/02/23 01:53:51;;;;;;;;;;;;;;;7.08;100.00;96310.41;5003088;28;19925;-70
2023/02/23 01:56:21;;;;;;;;;;;;;;;7.12;100.00;96307.75;4997784;28;19937;-69
2023/02/23 01:58:51;;;;;;;;;;;;;;;7.10;100.00;96310.81;5002775;28;19949;-71
2023/02/23 02:01:17;;;;;;;;;;;;;;;7.12;100.00;96310.47;4997549;28;19963;-68
2023/02/23 02:03:54;;;;;;;;;;;;;;;7.09;100.00;96306.50;5002224;28;19976;-68
2023/02/23 02:06:20;;;;;;;;;;;;;;;7.04;100.00;96310.31;4978932;28;20395;-70
2023/02/23 02:08:53;;;;;;;;;;;;;;;6.98;100.00;96308.97;4983279;28;19924;-69
2023/02/23 02:11:35;;;;;;;;;;;;;;;6.97;100.00;96306.59;4978964;28;19918;-70
2023/02/23 02:14:02;;;;;;;;;;;;;;;6.92;100.00;96321.28;4982657;28;19921;-69
2023/02/23 02:16:28;;;;;;;;;;;;;;;6.88;100.00;96315.75;4979149;28;19922;-68
2023/02/23 02:19:15;;;;;;;;;;;;;;;6.84;100.00;96314.06;4984130;28;19922;-68
2023/02/23 02:21:50;;;;;;;;;;;;;;;6.95;100.00;96306.16;5003171;28;19921;-70
2023/02/23 02:24:18;;;;;;;;;;;;;;;6.95;100.00;96308.91;4998633;28;20426;-70
2023/02/23 02:26:50;;;;;;;;;;;;;;;6.96;100.00;96310.47;5002079;28;20028;-69
2023/02/23 02:29:16;;;;;;;;;;;;;;;6.98;100.00;96305.47;4997616;28;19928;-67
2023/02/23 02:31:50;;;;;;;;;;;;;;;6.91;100.00;96300.63;5002091;28;20011;-70
2023/02/23 02:34:17;;;;;;;;;;;;;;;6.90;100.00;96301.78;4997917;28;19969;-70
2023/02/23 02:36:51;;;;;;;;;;;;;;;7.03;100.00;96307.94;5001616;28;19918;-69
2023/02/23 02:39:39;;;;;;;;;;;;;;;7.00;100.00;96297.75;4996465;28;19917;-69
2023/02/23 02:42:08;;;;;;;;;;;;;;;6.95;100.00;96300.72;4968712;28;19918;-70
2023/02/23 02:44:41;;;;;;;;;;;;;;;7.00;100.00;96300.47;5003223;28;19976;-69
2023/02/23 02:47:10;;;;;;;;;;;;;;;6.94;100.00;96299.94;5002179;28;19932;-70
2023/02/23 02:49:58;;;;;;;;;;;;;;;6.84;100.00;96306.72;5011015;28;20301;-69
2023/02/23 02:52:34;;;;;;;;;;;;;;;6.86;100.00;96303.63;5021019;28;19982;-69
2023/02/23 02:55:03;;;;;;;;;;;;;;;6.79;100.00;96303.44;5024979;28;20012;-68
2023/02/23 02:57:31;;;;;;;;;;;;;;;6.74;100.00;96301.78;5022216;28;19954;-70
2023/02/23 04:18:25;;;;;;;;;;;;;;;6.05;100.00;96304.69;5020202;28;19921;-68
2023/02/23 04:20:50;;;;;;;;;;;;;;;6.04;100.00;96311.25;5007670;28;20539;-69
2023/02/23 04:23:16;;;;;;;;;;;;;;;5.96;100.00;96303.25;4999587;28;20012;-71
2023/02/23 04:25:41;;;;;;;;;;;;;;;5.96;100.00;96309.47;5003809;28;19971;-69
2023/02/23 04:28:07;;;;;;;;;;;;;;;6.01;100.00;96308.44;5000091;28;19925;-69
2023/02/23 04:30:32;;;;;;;;;;;;;;;6.06;100.00;96308.19;5004065;28;19921;-70
2023/02/23 04:32:58;;;;;;;;;;;;;;;6.06;100.00;96311.69;5003988;28;20331;-70
2023/02/23 04:35:24;;;;;;;;;;;;;;;6.01;100.00;96311.94;4999147;28;20267;-70
2023/02/23 04:37:49;;;;;;;;;;;;;;;6.01;100.00;96311.16;5004172;28;19959;-69
2023/02/23 04:40:14;;;;;;;;;;;;;;;6.03;100.00;96311.59;4997852;28;19961;-69
2023/02/23 04:42:40;;;;;;;;;;;;;;;6.06;100.00;96310.91;5003958;28;19925;-69
2023/02/23 04:45:06;;;;;;;;;;;;;;;6.09;100.00;96313.72;4999256;28;19918;-70
2023/02/23 04:47:31;;;;;;;;;;;;;;;6.10;100.00;96314.50;5003361;28;19921;-70
2023/02/23 04:49:56;;;;;;;;;;;;;;;6.03;100.00;96314.31;5013330;28;19928;-69
2023/02/23 04:52:22;;;;;;;;;;;;;;;5.98;100.00;96315.38;5018391;28;20020;-69
2023/02/23 04:54:47;;;;;;;;;;;;;;;5.93;100.00;96316.34;5023601;28;19925;-70
2023/02/23 04:57:12;;;;;;;;;;;;;;;5.97;100.00;96316.50;5019495;28;19964;-71
2023/02/23 04:59:38;;;;;;;;;;;;;;;6.07;100.00;96317.94;5024060;28;20385;-70
2023/02/23 05:02:03;;;;;;;;;;;;;;;6.23;100.00;96309.78;5019673;28;20346;-71
2023/02/23 05:04:29;;;;;;;;;;;;;;;6.32;100.00;96310.47;5016934;28;19921;-70
2023/02/23 05:06:54;;;;;;;;;;;;;;;6.38;100.00;96309.06;5003725;28;20008;-71
2023/02/23 05:09:19;;;;;;;;;;;;;;;6.27;100.00;96308.78;4998335;28;20248;-70
2023/02/23 05:11:45;;;;;;;;;;;;;;;6.21;100.00;96307.44;5002869;28;19921;-70
2023/02/23 05:14:11;;;;;;;;;;;;;;;6.18;100.00;96304.63;4997028;28;20019;-69
2023/02/23 05:16:37;;;;;;;;;;;;;;;6.15;100.00;96306.09;5002638;28;19922;-70
2023/02/23 05:19:02;;;;;;;;;;;;;;;6.08;100.00;96303.97;4999697;28;19928;-69
2023/02/23 05:21:27;;;;;;;;;;;;;;;6.07;100.00;96305.13;5001899;28;19926;-70
2023/02/23 05:23:52;;;;;;;;;;;;;;;6.08;100.00;96305.91;5004178;28;20016;-70
2023/02/23 05:26:18;;;;;;;;;;;;;;;6.21;100.00;96312.06;4996887;28;19925;-69
2023/02/23 05:28:43;;;;;;;;;;;;;;;6.23;100.00;96307.06;5003173;28;20012;-69
2023/02/23 05:31:09;;;;;;;;;;;;;;;6.23;100.00;96312.53;4998573;28;20012;-70
2023/02/23 05:33:41;;;;;;;;;;;;;;;6.21;100.00;96306.63;5002920;28;19922;-69
2023/02/23 05:36:07;;;;;;;;;;;;;;;6.10;100.00;96311.78;5016747;28;19967;-70
2023/02/23 05:38:33;;;;;;;;;;;;;;;6.07;100.00;96304.34;5023211;28;20020;-74
2023/02/23 05:40:58;;;;;;;;;;;;;;;6.05;100.00;96312.84;5023404;28;19960;-73
2023/02/23 05:43:23;;;;;;;;;;;;;;;6.01;100.00;96309.22;5019071;28;20374;-71
2023/02/23 05:45:48;;;;;;;;;;;;;;;5.88;100.00;96313.88;5025031;28;19925;-71
2023/02/23 05:48:14;;;;;;;;;;;;;;;5.84;100.00;96309.50;5023869;28;20420;-72
2023/02/23 05:50:39;;;;;;;;;;;;;;;5.83;100.00;96305.97;5017538;28;19926;-72
2023/02/23 05:53:05;;;;;;;;;;;;;;;5.79;100.00;96304.31;5008165;28;19971;-72
2023/02/23 05:55:30;;;;;;;;;;;;;;;5.75;100.00;96304.97;5004080;28;19980;-71
2023/02/23 05:57:55;;;;;;;;;;;;;;;5.71;100.00;96301.38;5003008;28;19924;-71
2023/02/23 06:00:21;;;;;;;;;;;;;;;5.64;100.00;96305.81;4996839;28;19952;-72
2023/02/23 06:02:47;;;;;;;;;;;;;;;5.61;100.00;96306.50;5000987;28;19929;-72
2023/02/23 06:05:12;;;;;;;;;;;;;;;5.63;100.00;96310.44;4998102;28;19940;-71
2023/02/23 06:07:38;;;;;;;;;;;;;;;5.62;100.00;96313.50;5005463;28;19947;-72
2023/02/23 06:10:04;;;;;;;;;;;;;;;5.63;100.00;96310.44;4998423;28;19917;-73
2023/02/23 06:12:29;;;;;;;;;;;;;;;5.63;100.00;96304.22;5000333;28;19917;-72
2023/02/23 06:14:55;;;;;;;;;;;;;;;5.64;100.00;96311.25;5001803;28;19956;-74
2023/02/23 06:17:21;;;;;;;;;;;;;;;5.63;100.00;96312.38;4993881;28;20553;-74
2023/02/23 06:19:46;;;;;;;;;;;;;;;5.63;100.00;96312.38;4999405;28;20004;-73
2023/02/23 06:22:12;;;;;;;;;;;;;;;5.60;100.00;96313.88;4996659;28;20022;-73
2023/02/23 06:24:37;;;;;;;;;;;;;;;5.62;100.00;96311.59;5003096;28;19960;-72
2023/02/23 06:27:03;;;;;;;;;;;;;;;5.60;100.00;96311.16;5000939;28;19925;-71
2023/02/23 06:29:28;;;;;;;;;;;;;;;5.59;100.00;96306.06;5000721;28;19925;-71
2023/02/23 06:31:53;;;;;;;;;;;;;;;5.60;100.00;96315.78;5001308;28;19925;-71
2023/02/23 06:34:19;;;;;;;;;;;;;;;5.60;100.00;96316.59;4997985;28;20279;-72
2023/02/23 06:36:44;;;;;;;;;;;;;;;5.61;100.00;96320.88;5002805;28;19924;-73
2023/02/23 06:39:10;;;;;;;;;;;;;;;5.66;100.00;96328.00;4998474;28;19917;-71
2023/02/23 06:41:36;;;;;;;;;;;;;;;5.70;100.00;96328.88;5002435;28;19921;-72
2023/02/23 06:44:01;;;;;;;;;;;;;;;5.75;100.00;96325.94;5000592;28;19928;-71
2023/02/23 06:46:26;;;;;;;;;;;;;;;5.80;100.00;96327.59;4997185;28;19928;-72
2023/02/23 06:48:55;;;;;;;;;;;;;;;5.88;100.00;96335.63;5001150;28;19918;-74
2023/02/23 06:51:20;;;;;;;;;;;;;;;5.86;100.00;96331.69;4998176;28;20288;-73
2023/02/23 06:53:45;;;;;;;;;;;;;;;5.78;100.00;96329.88;5001436;28;19975;-73
2023/02/23 06:56:12;;;;;;;;;;;;;;;5.76;100.00;96327.50;4998109;28;19967;-71
2023/02/23 06:58:37;;;;;;;;;;;;;;;5.81;100.00;96331.91;5008320;28;19921;-73
2023/02/23 07:01:03;;;;;;;;;;;;;;;5.82;100.00;96333.50;5012496;28;19926;-70
2023/02/23 07:03:28;;;;;;;;;;;;;;;5.86;100.00;96340.63;5012009;28;19981;-72
2023/02/23 07:05:53;;;;;;;;;;;;;;;5.94;100.00;96344.31;5003804;28;19925;-72
2023/02/23 07:08:19;;;;;;;;;;;;;;;5.98;100.00;96344.47;4997105;28;19957;-72
2023/02/23 07:10:45;;;;;;;;;;;;;;;5.97;100.00;96340.94;5002260;28;19928;-72
2023/02/23 07:13:11;;;;;;;;;;;;;;;6.01;100.00;96349.22;4995964;28;19921;-72
2023/02/23 07:15:37;;;;;;;;;;;;;;;6.06;100.00;96347.03;5000885;28;20298;-72
2023/02/23 07:18:03;;;;;;;;;;;;;;;6.07;100.00;96350.56;5000804;28;20271;-71
2023/02/23 07:20:30;;;;;;;;;;;;;;;6.00;100.00;96350.38;4998860;28;19924;-71
2023/02/23 07:22:55;;;;;;;;;;;;;;;6.07;100.00;96354.06;5001209;28;19921;-72
2023/02/23 07:25:21;;;;;;;;;;;;;;;6.22;100.00;96349.81;4997929;28;20386;-73
2023/02/23 07:27:46;;;;;;;;;;;;;;;6.21;100.00;96350.97;5000977;28;20292;-73
2023/02/23 07:30:11;;;;;;;;;;;;;;;6.24;100.00;96352.97;4997216;28;19917;-72
2023/02/23 07:32:37;;;;;;;;;;;;;;;6.33;100.00;96355.53;5004370;28;20243;-71
2023/02/23 07:35:03;;;;;;;;;;;;;;;6.38;100.00;96359.94;5003600;28;19970;-72
2023/02/23 07:37:28;;;;;;;;;;;;;;;6.33;100.00;96355.53;5004780;28;19999;-71
2023/02/23 07:39:53;;;;;;;;;;;;;;;6.29;100.00;96358.16;5004982;28;19968;-72
2023/02/23 07:42:19;;;;;;;;;;;;;;;6.32;100.00;96362.13;5000429;28;20355;-72
2023/02/23 07:44:44;;;;;;;;;;;;;;;6.51;100.00;96361.47;5003278;28;19923;-72
2023/02/23 07:47:09;;;;;;;;;;;;;;;6.57;100.00;96365.53;4998245;28;20355;-72
2023/02/23 07:49:35;;;;;;;;;;;;;;;6.74;100.00;96366.34;5004315;28;19920;-72
2023/02/23 07:52:00;;;;;;;;;;;;;;;6.99;100.00;96362.31;5006212;28;20028;-71
2023/02/23 07:54:26;;;;;;;;;;;;;;;7.08;100.00;96365.63;5004101;28;19933;-72
2023/02/23 07:56:51;;;;;;;;;;;;;;;6.80;100.00;96368.44;5009117;28;19949;-72
2023/02/23 07:59:17;;;;;;;;;;;;;;;6.82;100.00;96366.16;5009833;28;19928;-72
2023/02/23 08:01:42;;;;;;;;;;;;;;;6.90;100.00;96369.84;5009058;28;19925;-72
2023/02/23 08:04:07;;;;;;;;;;;;;;;6.99;100.00;96370.47;4999987;28;19968;-71
2023/02/23 08:06:33;;;;;;;;;;;;;;;7.17;100.00;96364.69;5003695;28;19995;-72
2023/02/23 08:08:59;;;;;;;;;;;;;;;7.22;100.00;96367.13;5006029;28;19984;-72
2023/02/23 08:11:27;;;;;;;;;;;;;;;7.04;100.00;96361.22;5002878;28;19913;-72
2023/02/23 08:13:55;;;;;;;;;;;;;;;7.00;100.00;96357.63;4991099;28;19921;-72
2023/02/23 08:16:20;;;;;;;;;;;;;;;7.00;100.00;96363.88;5002867;28;20008;-73
2023/02/23 08:18:46;;;;;;;;;;;;;;;7.18;100.00;96368.97;5010262;28;20026;-72
2023/02/23 08:21:11;;;;;;;;;;;;;;;7.42;100.00;96368.00;5004111;28;20301;-72
2023/02/23 08:23:37;;;;;;;;;;;;;;;7.17;100.00;96367.41;5008345;28;19917;-72
2023/02/23 08:26:02;;;;;;;;;;;;;;;7.12;100.00;96368.44;5006203;28;19932;-71
2023/02/23 08:28:28;;;;;;;;;;;;;;;7.22;100.00;96367.94;5005784;28;19921;-72
2023/02/23 08:30:54;;;;;;;;;;;;;;;7.34;100.00;96369.75;5006615;28;19932;-72
2023/02/23 08:33:19;;;;;;;;;;;;;;;7.32;100.00;96365.81;4998385;28;19922;-72
2023/02/23 08:35:44;;;;;;;;;;;;;;;7.42;100.00;96368.00;5010247;28;20465;-72
2023/02/23 08:38:10;;;;;;;;;;;;;;;7.39;100.00;96365.97;5002904;28;19918;-72
2023/02/23 08:40:35;;;;;;;;;;;;;;;7.44;100.00;96368.44;5009756;28;19953;-72
2023/02/23 08:43:00;;;;;;;;;;;;;;;7.41;100.00;96360.94;5008436;28;19925;-72
2023/02/23 08:45:28;;;;;;;;;;;;;;;7.66;100.00;96365.03;5004674;28;19918;-72
2023/02/23 08:47:53;;;;;;;;;;;;;;;8.02;100.00;96365.78;5008308;28;20311;-72
2023/02/23 08:50:19;;;;;;;;;;;;;;;7.84;100.00;96361.91;5003508;28;19921;-73
2023/02/23 08:52:44;;;;;;;;;;;;;;;7.69;100.00;96358.09;5008892;28;19950;-72
2023/02/23 08:55:10;;;;;;;;;;;;;;;7.82;100.00;96359.53;5005838;28;19987;-72
2023/02/23 08:57:36;;;;;;;;;;;;;;;7.83;100.00;96354.88;5008683;28;19993;-72
2023/02/23 09:00:01;;;;;;;;;;;;;;;8.00;100.00;96348.22;5008230;28;19949;-72
2023/02/23 09:02:27;;;;;;;;;;;;;;;8.33;100.00;96344.19;5006978;28;19972;-72
2023/02/23 09:04:53;;;;;;;;;;;;;;;8.56;100.00;96349.72;4991131;28;19925;-72
2023/02/23 09:07:19;;;;;;;;;;;;;;;8.97;100.00;96345.38;5002619;28;19996;-72
2023/02/23 09:09:44;;;;;;;;;;;;;;;9.88;100.00;96344.78;5007646;28;19921;-73
2023/02/23 09:12:09;;;;;;;;;;;;;;;9.87;100.00;96362.38;5002358;28;20265;-73
2023/02/23 09:14:35;;;;;;;;;;;;;;;10.41;100.00;96357.59;5008477;28;19922;-73
2023/02/23 09:17:00;;;;;;;;;;;;;;;12.01;100.00;96364.81;5007532;28;19965;-73
2023/02/23 09:19:26;;;;;;;;;;;;;;;12.48;100.00;96370.50;5003384;28;19917;-71
2023/02/23 09:21:52;;;;;;;;;;;;;;;13.81;99.43;96370.66;5008862;28;19917;-73
2023/02/23 09:24:18;;;;;;;;;;;;;;;13.97;96.85;96376.53;5003322;28;19959;-73
2023/02/23 09:26:44;;;;;;;;;;;;;;;14.86;90.48;96375.44;5010720;28;19932;-72
2023/02/23 09:29:09;;;;;;;;;;;;;;;15.13;86.09;96377.63;5005739;28;19917;-73
2023/02/23 09:31:34;;;;;;;;;;;;;;;15.95;76.22;96375.41;5006460;28;19964;-73
2023/02/23 09:34:00;;;;;;;;;;;;;;;15.51;73.48;96372.22;5009442;28;19940;-73
2023/02/23 09:36:26;;;;;;;;;;;;;;;15.73;75.02;96377.56;5004069;28;19925;-73
2023/02/23 09:38:54;;;;;;;;;;;;;;;16.11;72.51;96369.31;5008121;28;19975;-71
2023/02/23 09:41:26;;;;;;;;;;;;;;;16.23;70.90;96383.41;5004477;28;20067;-73
2023/02/23 09:43:54;;;;;;;;;;;;;;;15.90;70.50;96386.88;5010421;28;20159;-73
2023/02/23 09:46:27;;;;;;;;;;;;;;;15.39;72.63;96386.50;5001159;28;19921;-73
2023/02/23 09:48:54;;;;;;;;;;;;;;;14.67;76.23;96379.47;5006505;28;20381;-72
2023/02/23 09:51:20;;;;;;;;;;;;;;;14.20;78.56;96392.59;5003051;28;19924;-73
2023/02/23 09:53:56;;;;;;;;;;;;;;;13.77;83.46;96388.00;5007135;28;19925;-72
2023/02/23 09:56:42;;;;;;;;;;;;;;;14.05;83.52;96391.88;5003316;28;20138;-71
2023/02/23 09:59:15;;;;;;;;;;;;;;;14.54;83.82;96394.84;5001984;28;19936;-73
2023/02/23 10:01:40;;;;;;;;;;;;;;;14.79;83.75;96388.47;5006800;28;19917;-73
2023/02/23 10:04:17;;;;;;;;;;;;;;;15.86;76.28;96381.41;5004040;28;20283;-70
2023/02/23 10:06:46;;;;;;;;;;;;;;;16.48;68.88;96384.31;5020309;28;19921;-72
2023/02/23 10:09:20;;;;;;;;;;;;;;;17.26;65.82;96390.03;5017127;28;19917;-72
2023/02/23 10:11:55;;;;;;;;;;;;;;;17.43;63.47;96386.19;5011535;28;19957;-72
2023/02/23 10:14:30;;;;;;;;;;;;;;;17.17;62.65;96396.06;5003071;28;19963;-73
2023/02/23 10:16:55;;;;;;;;;;;;;;;17.22;64.46;96386.53;5006119;28;19960;-72
2023/02/23 10:19:34;;;;;;;;;;;;;;;17.90;60.83;96389.00;5001837;28;19924;-72
2023/02/23 10:22:05;;;;;;;;;;;;;;;17.98;58.94;96386.13;5006519;28;19933;-72
2023/02/23 10:24:40;;;;;;;;;;;;;;;18.25;57.42;96386.00;5006037;28;19917;-72
2023/02/23 10:27:11;;;;;;;;;;;;;;;17.93;57.73;96385.41;5000314;28;20353;-71
2023/02/23 10:29:42;;;;;;;;;;;;;;;18.47;56.94;96383.59;5012498;28;19918;-73
2023/02/23 10:32:27;;;;;;;;;;;;;;;19.40;52.20;96389.16;5007971;28;19918;-72
2023/02/23 10:34:55;;;;;;;;;;;;;;;18.97;50.83;96376.25;4998074;28;19917;-72
2023/02/23 10:37:21;;;;;;;;;;;;;;;17.61;56.85;96380.38;5002484;28;19918;-72
2023/02/23 10:39:48;;;;;;;;;;;;;;;17.99;58.00;96384.88;5005983;28;19917;-72
2023/02/23 10:42:16;;;;;;;;;;;;;;;17.73;57.44;96381.75;5001905;28;19964;-72
2023/02/23 10:44:43;;;;;;;;;;;;;;;17.06;59.99;96376.09;5005306;28;20347;-71
2023/02/23 10:47:12;;;;;;;;;;;;;;;16.63;60.37;96375.41;5001599;28;19945;-72
2023/02/23 10:49:41;;;;;;;;;;;;;;;16.53;63.12;96370.03;5006371;28;19937;-72
2023/02/23 10:52:12;;;;;;;;;;;;;;;16.86;60.04;96371.22;5001046;28;20021;-73
2023/02/23 10:54:46;;;;;;;;;;;;;;;16.63;61.43;96369.09;5006344;28;19924;-72
2023/02/23 10:57:19;;;;;;;;;;;;;;;17.34;60.27;96366.53;5002096;28;19917;-73
2023/02/23 11:00:03;;;;;;;;;;;;;;;17.28;58.14;96355.16;5007538;28;19918;-73
2023/02/23 11:02:29;;;;;;;;;;;;;;;16.55;57.57;96365.66;5004956;28;19917;-73
2023/02/23 11:04:56;;;;;;;;;;;;;;;16.12;62.92;96357.88;5004182;28;19929;-73
2023/02/23 11:07:22;;;;;;;;;;;;;;;16.79;60.05;96358.22;5000948;28;19926;-70
2023/02/23 11:09:50;;;;;;;;;;;;;;;17.20;59.88;96354.50;5013780;28;19917;-72
2023/02/23 11:12:34;;;;;;;;;;;;;;;17.70;56.60;96349.34;5008070;28;19917;-73
2023/02/23 11:15:18;;;;;;;;;;;;;;;17.67;54.57;96350.22;4993976;28;19924;-73
2023/02/23 11:17:44;;;;;;;;;;;;;;;16.80;57.79;96342.44;5008884;28;20290;-71
2023/02/23 11:20:15;;;;;;;;;;;;;;;17.21;56.96;96346.97;5006064;28;20020;-74
2023/02/23 11:22:41;;;;;;;;;;;;;;;16.81;56.76;96341.22;5012360;28;19961;-74
2023/02/23 11:25:23;;;;;;;;;;;;;;;17.04;56.85;96343.28;5005114;28;19932;-72
2023/02/23 11:27:50;;;;;;;;;;;;;;;16.77;57.36;96332.19;5010009;28;19948;-72
2023/02/23 11:30:19;;;;;;;;;;;;;;;17.06;56.25;96324.28;5007619;28;19953;-72
2023/02/23 11:32:49;;;;;;;;;;;;;;;17.21;56.28;96327.59;5011444;28;19969;-72
2023/02/23 11:35:17;;;;;;;;;;;;;;;17.35;55.49;96316.31;5006137;28;19917;-72
2023/02/23 11:37:42;;;;;;;;;;;;;;;16.93;56.44;96321.31;5010914;28;20416;-71
2023/02/23 11:40:24;;;;;;;;;;;;;;;17.07;55.02;96320.34;5007134;28;19971;-72
2023/02/23 11:42:52;;;;;;;;;;;;;;;16.86;54.69;96320.66;5010069;28;20366;-72
2023/02/23 11:45:21;;;;;;;;;;;;;;;17.78;53.04;96307.25;5006242;28;20358;-71
2023/02/23 11:47:48;;;;;;;;;;;;;;;17.47;53.21;96311.41;5008949;28;20313;-71
2023/02/23 11:50:20;;;;;;;;;;;;;;;17.96;51.06;96306.94;5004640;28;19971;-71
2023/02/23 11:52:46;;;;;;;;;;;;;;;17.25;52.90;96308.19;5007981;28;19963;-73
2023/02/23 11:55:16;;;;;;;;;;;;;;;17.95;50.69;96299.06;5004137;28;20445;-73
2023/02/23 11:57:41;;;;;;;;;;;;;;;18.58;49.68;96300.19;5009507;28;19977;-71
2023/02/23 12:00:09;;;;;;;;;;;;;;;18.99;46.98;96305.22;5005397;28;19968;-71
2023/02/23 12:02:43;;;;;;;;;;;;;;;19.09;46.99;96295.88;4991436;28;19925;-74
2023/02/23 12:05:16;;;;;;;;;;;;;;;18.64;48.32;96290.94;5003947;28;19925;-72
2023/02/23 12:08:00;;;;;;;;;;;;;;;18.75;46.64;96287.16;5008960;28;19973;-72
2023/02/23 12:10:29;;;;;;;;;;;;;;;19.45;46.03;96289.44;5003053;28;19921;-72
2023/02/23 12:13:07;;;;;;;;;;;;;;;19.03;46.97;96291.25;5009369;28;19921;-72
2023/02/23 12:15:42;;;;;;;;;;;;;;;19.86;44.91;96290.81;5010629;28;19921;-70
2023/02/23 12:18:31;;;;;;;;;;;;;;;20.11;44.10;96282.97;5018971;28;19921;-71
2023/02/23 12:21:00;;;;;;;;;;;;;;;19.63;44.79;96280.66;4992120;28;19918;-74
2023/02/23 12:23:28;;;;;;;;;;;;;;;20.39;43.06;96281.41;5002100;28;19971;-73
2023/02/23 12:26:04;;;;;;;;;;;;;;;20.01;43.70;96274.50;5008616;28;19960;-72
2023/02/23 12:28:34;;;;;;;;;;;;;;;20.07;43.57;96279.53;5008688;28;19921;-73
2023/02/23 12:30:59;;;;;;;;;;;;;;;19.55;44.07;96276.50;5009012;28;19924;-72
2023/02/23 12:33:32;;;;;;;;;;;;;;;18.49;47.10;96270.25;4985549;28;19921;-71
2023/02/23 12:36:05;;;;;;;;;;;;;;;18.65;46.46;96270.28;5006549;28;19917;-72
2023/02/23 12:38:47;;;;;;;;;;;;;;;18.78;47.61;96269.63;5007259;28;20354;-73
2023/02/23 12:41:15;;;;;;;;;;;;;;;19.51;45.59;96261.16;5005060;28;19918;-72
2023/02/23 12:43:50;;;;;;;;;;;;;;;19.59;43.70;96271.66;5008062;28;19948;-72
2023/02/23 12:46:36;;;;;;;;;;;;;;;18.56;46.06;96261.78;5003722;28;20087;-72
2023/02/23 12:49:04;;;;;;;;;;;;;;;17.67;48.14;96259.59;5005985;28;19918;-71
2023/02/23 12:51:37;;;;;;;;;;;;;;;18.02;48.50;96257.34;5010983;28;19924;-73
2023/02/23 12:54:04;;;;;;;;;;;;;;;18.46;46.15;96252.50;5012602;28;19943;-71
2023/02/23 12:56:53;;;;;;;;;;;;;;;18.22;47.57;96253.81;5027893;28;20337;-72
2023/02/23 12:59:37;;;;;;;;;;;;;;;18.37;46.63;96257.06;5003638;28;19976;-72
2023/02/23 13:02:25;;;;;;;;;;;;;;;17.29;48.66;96259.09;5007034;28;19917;-71
2023/02/23 13:05:03;;;;;;;;;;;;;;;17.10;49.17;96257.81;5007716;28;20394;-72
2023/02/23 13:07:35;;;;;;;;;;;;;;;15.49;53.52;96242.91;5006866;28;20379;-73
2023/02/23 13:10:12;;;;;;;;;;;;;;;16.10;53.45;96246.19;5009576;28;19924;-73
2023/02/23 13:12:52;;;;;;;;;;;;;;;16.75;52.09;96244.13;4991968;28;19918;-73
2023/02/23 13:15:18;;;;;;;;;;;;;;;16.48;52.57;96243.34;5003594;28;19917;-72
2023/02/23 13:18:07;;;;;;;;;;;;;;;16.47;52.23;96244.53;5008628;28;19944;-72
2023/02/23 13:20:38;;;;;;;;;;;;;;;15.92;53.60;96246.41;5007875;28;19926;-72
2023/02/23 13:23:17;;;;;;;;;;;;;;;15.36;54.74;96246.59;5007816;28;20374;-71
2023/02/23 13:25:53;;;;;;;;;;;;;;;14.99;56.58;96239.84;5008784;28;19921;-72
2023/02/23 13:28:35;;;;;;;;;;;;;;;14.84;57.53;96239.97;5004723;28;19922;-72
2023/02/23 13:31:00;;;;;;;;;;;;;;;14.78;58.09;96241.56;5006801;28;19918;-72
2023/02/23 13:33:28;;;;;;;;;;;;;;;15.01;57.70;96237.47;5003191;28;19924;-72
2023/02/23 13:35:54;;;;;;;;;;;;;;;15.08;58.33;96238.19;5007740;28;19925;-73
2023/02/23 13:38:25;;;;;;;;;;;;;;;15.00;58.14;96242.19;5005424;28;19921;-72
2023/02/23 13:41:03;;;;;;;;;;;;;;;15.03;58.36;96233.09;5007120;28;19921;-72
2023/02/23 13:43:29;;;;;;;;;;;;;;;14.87;58.17;96230.09;5006337;28;19921;-72
2023/02/23 13:46:03;;;;;;;;;;;;;;;14.76;57.81;96232.91;5010901;28;19921;-72
2023/02/23 13:48:34;;;;;;;;;;;;;;;14.44;59.40;96233.13;5006828;28;19929;-71
2023/02/23 13:51:02;;;;;;;;;;;;;;;14.47;59.84;96230.34;5006349;28;19986;-73
2023/02/23 13:53:39;;;;;;;;;;;;;;;14.51;60.47;96225.59;5008420;28;19932;-72
2023/02/23 13:56:07;;;;;;;;;;;;;;;14.49;59.49;96225.19;5003938;28;19918;-70
2023/02/23 13:58:33;;;;;;;;;;;;;;;14.38;61.25;96216.22;5008752;28;20298;-73
2023/02/23 14:01:08;;;;;;;;;;;;;;;14.44;61.41;96222.91;5006457;28;19917;-72
2023/02/23 14:03:38;;;;;;;;;;;;;;;14.60;61.25;96221.63;5007096;28;19925;-73
2023/02/23 14:06:04;;;;;;;;;;;;;;;14.76;60.92;96219.13;5004345;28;19925;-71
2023/02/23 14:08:33;;;;;;;;;;;;;;;14.78;59.38;96219.50;5006644;28;20288;-73
2023/02/23 14:10:59;;;;;;;;;;;;;;;14.84;60.31;96215.16;5007675;28;19917;-72